sensor_id;sensor_type;location;lat;lon;timestamp;P1;durP1;ratioP1;P2;durP2;ratioP2
76035;SDS011;64732;56.314;44.068;2023-09-19T00:01:20;3.83;;;2.63;;
76035;SDS011;64732;56.314;44.068;2023-09-19T00:03:41;3.00;;;1.60;;
76035;SDS011;64732;56.314;44.068;2023-09-19T00:06:02;3.10;;;1.95;;
76035;SDS011;64732;56.314;44.068;2023-09-19T00:08:23;4.38;;;1.98;;
76035;SDS011;64732;56.314;44.068;2023-09-19T00:10:44;4.05;;;1.80;;
76035;SDS011;64732;56.314;44.068;2023-09-19T00:13:05;3.45;;;2.15;;
76035;SDS011;64732;56.314;44.068;2023-09-19T00:15:26;3.38;;;1.70;;
76035;SDS011;64732;56.314;44.068;2023-09-19T00:17:51;3.97;;;1.90;;
76035;SDS011;64732;56.314;44.068;2023-09-19T00:20:12;3.53;;;2.20;;
76035;SDS011;64732;56.314;44.068;2023-09-19T00:22:33;3.15;;;1.38;;
76035;SDS011;64732;56.314;44.068;2023-09-19T00:24:54;2.47;;;1.45;;
76035;SDS011;64732;56.314;44.068;2023-09-19T00:27:15;2.83;;;1.70;;
76035;SDS011;64732;56.314;44.068;2023-09-19T00:29:36;5.43;;;1.90;;
76035;SDS011;64732;56.314;44.068;2023-09-19T00:31:56;3.05;;;1.85;;
76035;SDS011;64732;56.314;44.068;2023-09-19T00:34:20;6.05;;;2.30;;
76035;SDS011;64732;56.314;44.068;2023-09-19T00:36:41;4.20;;;1.52;;
76035;SDS011;64732;56.314;44.068;2023-09-19T00:39:02;3.17;;;1.73;;
76035;SDS011;64732;56.314;44.068;2023-09-19T00:41:23;2.88;;;1.73;;
76035;SDS011;64732;56.314;44.068;2023-09-19T00:43:44;3.35;;;2.13;;
76035;SDS011;64732;56.314;44.068;2023-09-19T00:46:05;5.72;;;2.20;;
76035;SDS011;64732;56.314;44.068;2023-09-19T00:48:26;3.42;;;2.00;;
76035;SDS011;64732;56.314;44.068;2023-09-19T00:50:50;3.50;;;1.42;;
76035;SDS011;64732;56.314;44.068;2023-09-19T00:53:12;2.65;;;1.60;;
76035;SDS011;64732;56.314;44.068;2023-09-19T00:55:34;2.17;;;1.10;;
76035;SDS011;64732;56.314;44.068;2023-09-19T00:57:56;3.33;;;1.48;;
76035;SDS011;64732;56.314;44.068;2023-09-19T01:00:17;2.50;;;1.50;;
76035;SDS011;64732;56.314;44.068;2023-09-19T01:02:38;2.65;;;1.80;;
76035;SDS011;64732;56.314;44.068;2023-09-19T01:04:59;2.88;;;1.40;;
76035;SDS011;64732;56.314;44.068;2023-09-19T01:07:23;4.65;;;1.92;;
76035;SDS011;64732;56.314;44.068;2023-09-19T01:09:46;1.92;;;1.17;;
76035;SDS011;64732;56.314;44.068;2023-09-19T01:12:07;5.53;;;2.10;;
76035;SDS011;64732;56.314;44.068;2023-09-19T01:14:31;2.10;;;1.30;;
76035;SDS011;64732;56.314;44.068;2023-09-19T01:16:59;3.83;;;1.45;;
76035;SDS011;64732;56.314;44.068;2023-09-19T01:19:38;2.45;;;1.65;;
76035;SDS011;64732;56.314;44.068;2023-09-19T01:22:13;3.03;;;1.83;;
76035;SDS011;64732;56.314;44.068;2023-09-19T01:24:53;7.07;;;1.77;;
76035;SDS011;64732;56.314;44.068;2023-09-19T01:27:26;3.90;;;1.80;;
76035;SDS011;64732;56.314;44.068;2023-09-19T01:30:11;3.25;;;1.92;;
76035;SDS011;64732;56.314;44.068;2023-09-19T01:32:34;6.63;;;2.20;;
76035;SDS011;64732;56.314;44.068;2023-09-19T01:34:56;4.45;;;2.03;;
76035;SDS011;64732;56.314;44.068;2023-09-19T01:37:18;4.55;;;2.35;;
76035;SDS011;64732;56.314;44.068;2023-09-19T01:39:42;3.08;;;1.80;;
76035;SDS011;64732;56.314;44.068;2023-09-19T01:42:04;3.10;;;1.85;;
76035;SDS011;64732;56.314;44.068;2023-09-19T01:44:30;3.05;;;1.80;;
76035;SDS011;64732;56.314;44.068;2023-09-19T01:46:58;6.10;;;2.20;;
76035;SDS011;64732;56.314;44.068;2023-09-19T01:49:27;2.80;;;1.60;;
76035;SDS011;64732;56.314;44.068;2023-09-19T01:51:53;2.90;;;1.90;;
76035;SDS011;64732;56.314;44.068;2023-09-19T01:54:26;4.05;;;2.47;;
76035;SDS011;64732;56.314;44.068;2023-09-19T01:56:52;4.20;;;2.75;;
76035;SDS011;64732;56.314;44.068;2023-09-19T01:59:21;8.32;;;2.42;;
76035;SDS011;64732;56.314;44.068;2023-09-19T02:01:45;6.07;;;4.68;;
76035;SDS011;64732;56.314;44.068;2023-09-19T02:04:09;7.93;;;5.35;;
76035;SDS011;64732;56.314;44.068;2023-09-19T02:06:30;7.78;;;6.50;;
76035;SDS011;64732;56.314;44.068;2023-09-19T02:08:52;9.35;;;6.18;;
76035;SDS011;64732;56.314;44.068;2023-09-19T02:11:14;7.10;;;6.07;;
76035;SDS011;64732;56.314;44.068;2023-09-19T02:13:35;7.85;;;6.95;;
76035;SDS011;64732;56.314;44.068;2023-09-19T02:15:56;6.30;;;4.88;;
76035;SDS011;64732;56.314;44.068;2023-09-19T02:18:17;5.60;;;4.57;;
76035;SDS011;64732;56.314;44.068;2023-09-19T02:20:40;8.65;;;4.95;;
76035;SDS011;64732;56.314;44.068;2023-09-19T02:23:01;7.35;;;6.22;;
76035;SDS011;64732;56.314;44.068;2023-09-19T02:25:42;7.93;;;5.22;;
76035;SDS011;64732;56.314;44.068;2023-09-19T02:28:11;7.15;;;6.13;;
76035;SDS011;64732;56.314;44.068;2023-09-19T02:30:32;8.07;;;6.25;;
76035;SDS011;64732;56.314;44.068;2023-09-19T02:32:53;6.45;;;4.95;;
76035;SDS011;64732;56.314;44.068;2023-09-19T02:35:14;7.20;;;5.10;;
76035;SDS011;64732;56.314;44.068;2023-09-19T02:37:38;6.68;;;5.22;;
76035;SDS011;64732;56.314;44.068;2023-09-19T02:39:58;6.57;;;4.30;;
76035;SDS011;64732;56.314;44.068;2023-09-19T02:42:19;8.77;;;5.47;;
76035;SDS011;64732;56.314;44.068;2023-09-19T02:44:40;7.72;;;4.70;;
76035;SDS011;64732;56.314;44.068;2023-09-19T02:47:01;7.25;;;5.13;;
76035;SDS011;64732;56.314;44.068;2023-09-19T02:49:23;7.15;;;5.03;;
76035;SDS011;64732;56.314;44.068;2023-09-19T02:51:46;5.55;;;4.47;;
76035;SDS011;64732;56.314;44.068;2023-09-19T02:54:10;5.47;;;4.25;;
76035;SDS011;64732;56.314;44.068;2023-09-19T02:56:31;7.57;;;3.78;;
76035;SDS011;64732;56.314;44.068;2023-09-19T02:58:52;5.05;;;4.03;;
76035;SDS011;64732;56.314;44.068;2023-09-19T03:01:13;7.35;;;3.70;;
76035;SDS011;64732;56.314;44.068;2023-09-19T03:03:34;4.30;;;3.85;;
76035;SDS011;64732;56.314;44.068;2023-09-19T03:05:55;5.25;;;3.67;;
76035;SDS011;64732;56.314;44.068;2023-09-19T03:08:16;6.22;;;3.95;;
76035;SDS011;64732;56.314;44.068;2023-09-19T03:10:40;8.15;;;5.97;;
76035;SDS011;64732;56.314;44.068;2023-09-19T03:13:01;9.32;;;5.20;;
76035;SDS011;64732;56.314;44.068;2023-09-19T03:15:22;7.70;;;3.85;;
76035;SDS011;64732;56.314;44.068;2023-09-19T03:17:43;6.30;;;3.40;;
76035;SDS011;64732;56.314;44.068;2023-09-19T03:20:04;6.00;;;3.58;;
76035;SDS011;64732;56.314;44.068;2023-09-19T03:22:26;3.58;;;2.80;;
76035;SDS011;64732;56.314;44.068;2023-09-19T03:24:47;6.43;;;2.80;;
76035;SDS011;64732;56.314;44.068;2023-09-19T03:27:11;8.98;;;5.22;;
76035;SDS011;64732;56.314;44.068;2023-09-19T03:29:33;17.50;;;9.10;;
76035;SDS011;64732;56.314;44.068;2023-09-19T03:31:54;5.35;;;3.15;;
76035;SDS011;64732;56.314;44.068;2023-09-19T03:34:15;7.70;;;4.80;;
76035;SDS011;64732;56.314;44.068;2023-09-19T03:36:36;5.28;;;4.30;;
76035;SDS011;64732;56.314;44.068;2023-09-19T03:38:59;9.00;;;5.18;;
76035;SDS011;64732;56.314;44.068;2023-09-19T03:41:20;5.07;;;3.08;;
76035;SDS011;64732;56.314;44.068;2023-09-19T03:43:44;15.05;;;8.90;;
76035;SDS011;64732;56.314;44.068;2023-09-19T03:46:05;9.02;;;3.95;;
76035;SDS011;64732;56.314;44.068;2023-09-19T03:48:26;3.30;;;1.92;;
76035;SDS011;64732;56.314;44.068;2023-09-19T03:50:46;6.07;;;1.92;;
76035;SDS011;64732;56.314;44.068;2023-09-19T03:53:07;3.75;;;1.58;;
76035;SDS011;64732;56.314;44.068;2023-09-19T03:55:28;2.65;;;1.10;;
76035;SDS011;64732;56.314;44.068;2023-09-19T03:57:49;4.97;;;1.88;;
76035;SDS011;64732;56.314;44.068;2023-09-19T04:00:13;7.97;;;1.20;;
76035;SDS011;64732;56.314;44.068;2023-09-19T04:02:35;2.40;;;1.30;;
76035;SDS011;64732;56.314;44.068;2023-09-19T04:04:57;2.17;;;1.00;;
76035;SDS011;64732;56.314;44.068;2023-09-19T04:07:18;2.67;;;1.35;;
76035;SDS011;64732;56.314;44.068;2023-09-19T04:09:39;2.08;;;0.70;;
76035;SDS011;64732;56.314;44.068;2023-09-19T04:12:00;1.70;;;0.77;;
76035;SDS011;64732;56.314;44.068;2023-09-19T04:14:21;2.53;;;1.10;;
76035;SDS011;64732;56.314;44.068;2023-09-19T04:16:44;16.55;;;8.65;;
76035;SDS011;64732;56.314;44.068;2023-09-19T04:19:05;14.57;;;6.00;;
76035;SDS011;64732;56.314;44.068;2023-09-19T04:21:26;5.15;;;1.77;;
76035;SDS011;64732;56.314;44.068;2023-09-19T04:23:47;4.72;;;1.35;;
76035;SDS011;64732;56.314;44.068;2023-09-19T04:26:08;2.25;;;0.98;;
76035;SDS011;64732;56.314;44.068;2023-09-19T04:28:29;4.90;;;1.40;;
76035;SDS011;64732;56.314;44.068;2023-09-19T04:30:50;1.83;;;0.95;;
76035;SDS011;64732;56.314;44.068;2023-09-19T04:33:13;3.10;;;1.00;;
76035;SDS011;64732;56.314;44.068;2023-09-19T04:35:35;2.55;;;1.10;;
76035;SDS011;64732;56.314;44.068;2023-09-19T04:37:56;4.72;;;1.20;;
76035;SDS011;64732;56.314;44.068;2023-09-19T04:40:17;2.67;;;1.10;;
76035;SDS011;64732;56.314;44.068;2023-09-19T04:42:39;2.20;;;1.10;;
76035;SDS011;64732;56.314;44.068;2023-09-19T04:45:01;2.83;;;1.10;;
76035;SDS011;64732;56.314;44.068;2023-09-19T04:47:22;2.92;;;1.02;;
76035;SDS011;64732;56.314;44.068;2023-09-19T04:49:45;1.73;;;0.70;;
76035;SDS011;64732;56.314;44.068;2023-09-19T04:52:06;6.30;;;0.95;;
76035;SDS011;64732;56.314;44.068;2023-09-19T04:54:28;4.95;;;0.88;;
76035;SDS011;64732;56.314;44.068;2023-09-19T04:56:49;4.20;;;1.35;;
76035;SDS011;64732;56.314;44.068;2023-09-19T04:59:10;4.80;;;1.15;;
76035;SDS011;64732;56.314;44.068;2023-09-19T05:01:31;2.97;;;0.90;;
76035;SDS011;64732;56.314;44.068;2023-09-19T05:03:52;1.98;;;0.80;;
76035;SDS011;64732;56.314;44.068;2023-09-19T05:06:16;3.22;;;0.90;;
76035;SDS011;64732;56.314;44.068;2023-09-19T05:08:37;2.10;;;1.00;;
76035;SDS011;64732;56.314;44.068;2023-09-19T05:10:58;1.73;;;0.80;;
76035;SDS011;64732;56.314;44.068;2023-09-19T05:13:19;2.35;;;0.93;;
76035;SDS011;64732;56.314;44.068;2023-09-19T05:15:39;2.08;;;0.60;;
76035;SDS011;64732;56.314;44.068;2023-09-19T05:18:00;3.33;;;0.90;;
76035;SDS011;64732;56.314;44.068;2023-09-19T05:20:22;4.63;;;1.00;;
76035;SDS011;64732;56.314;44.068;2023-09-19T05:22:45;4.28;;;0.90;;
76035;SDS011;64732;56.314;44.068;2023-09-19T05:25:06;3.60;;;1.00;;
76035;SDS011;64732;56.314;44.068;2023-09-19T05:27:28;4.07;;;0.90;;
76035;SDS011;64732;56.314;44.068;2023-09-19T05:29:49;2.03;;;0.80;;
76035;SDS011;64732;56.314;44.068;2023-09-19T05:32:10;2.97;;;0.93;;
76035;SDS011;64732;56.314;44.068;2023-09-19T05:34:31;3.53;;;0.80;;
76035;SDS011;64732;56.314;44.068;2023-09-19T05:36:52;4.05;;;1.08;;
76035;SDS011;64732;56.314;44.068;2023-09-19T05:39:15;2.72;;;0.80;;
76035;SDS011;64732;56.314;44.068;2023-09-19T05:41:36;2.65;;;1.23;;
76035;SDS011;64732;56.314;44.068;2023-09-19T05:43:57;6.55;;;1.63;;
76035;SDS011;64732;56.314;44.068;2023-09-19T05:46:18;4.28;;;2.05;;
76035;SDS011;64732;56.314;44.068;2023-09-19T05:48:39;2.03;;;0.80;;
76035;SDS011;64732;56.314;44.068;2023-09-19T05:51:00;2.60;;;1.10;;
76035;SDS011;64732;56.314;44.068;2023-09-19T05:53:21;2.28;;;0.95;;
76035;SDS011;64732;56.314;44.068;2023-09-19T05:55:44;2.30;;;1.00;;
76035;SDS011;64732;56.314;44.068;2023-09-19T05:58:05;2.00;;;0.82;;
76035;SDS011;64732;56.314;44.068;2023-09-19T06:00:26;3.30;;;0.93;;
76035;SDS011;64732;56.314;44.068;2023-09-19T06:02:49;3.17;;;1.15;;
76035;SDS011;64732;56.314;44.068;2023-09-19T06:05:11;3.85;;;0.95;;
76035;SDS011;64732;56.314;44.068;2023-09-19T06:07:32;3.13;;;0.98;;
76035;SDS011;64732;56.314;44.068;2023-09-19T06:09:53;6.90;;;0.95;;
76035;SDS011;64732;56.314;44.068;2023-09-19T06:12:16;2.42;;;0.90;;
76035;SDS011;64732;56.314;44.068;2023-09-19T06:14:37;3.80;;;1.25;;
76035;SDS011;64732;56.314;44.068;2023-09-19T06:16:59;1.33;;;0.77;;
76035;SDS011;64732;56.314;44.068;2023-09-19T06:19:20;3.13;;;0.85;;
76035;SDS011;64732;56.314;44.068;2023-09-19T06:21:41;2.58;;;0.85;;
76035;SDS011;64732;56.314;44.068;2023-09-19T06:24:03;3.70;;;0.95;;
76035;SDS011;64732;56.314;44.068;2023-09-19T06:26:24;2.80;;;1.30;;
76035;SDS011;64732;56.314;44.068;2023-09-19T06:28:48;2.03;;;0.70;;
76035;SDS011;64732;56.314;44.068;2023-09-19T06:31:10;3.65;;;0.95;;
76035;SDS011;64732;56.314;44.068;2023-09-19T06:33:31;3.42;;;0.93;;
76035;SDS011;64732;56.314;44.068;2023-09-19T06:35:52;2.47;;;0.90;;
76035;SDS011;64732;56.314;44.068;2023-09-19T06:38:14;1.90;;;0.93;;
76035;SDS011;64732;56.314;44.068;2023-09-19T06:40:35;2.85;;;0.63;;
76035;SDS011;64732;56.314;44.068;2023-09-19T06:42:56;3.13;;;0.80;;
76035;SDS011;64732;56.314;44.068;2023-09-19T06:45:20;4.70;;;1.42;;
76035;SDS011;64732;56.314;44.068;2023-09-19T06:47:41;6.18;;;1.50;;
76035;SDS011;64732;56.314;44.068;2023-09-19T06:50:02;3.22;;;0.90;;
76035;SDS011;64732;56.314;44.068;2023-09-19T06:52:24;3.47;;;0.73;;
76035;SDS011;64732;56.314;44.068;2023-09-19T06:54:44;1.70;;;0.70;;
76035;SDS011;64732;56.314;44.068;2023-09-19T06:57:05;3.45;;;0.65;;
76035;SDS011;64732;56.314;44.068;2023-09-19T06:59:26;4.80;;;0.60;;
76035;SDS011;64732;56.314;44.068;2023-09-19T07:01:50;3.03;;;0.60;;
76035;SDS011;64732;56.314;44.068;2023-09-19T07:04:12;4.15;;;0.93;;
76035;SDS011;64732;56.314;44.068;2023-09-19T07:06:33;2.17;;;0.70;;
76035;SDS011;64732;56.314;44.068;2023-09-19T07:08:55;1.83;;;0.55;;
76035;SDS011;64732;56.314;44.068;2023-09-19T07:11:16;3.72;;;0.60;;
76035;SDS011;64732;56.314;44.068;2023-09-19T07:13:37;1.55;;;0.63;;
76035;SDS011;64732;56.314;44.068;2023-09-19T07:15:58;2.08;;;1.23;;
76035;SDS011;64732;56.314;44.068;2023-09-19T07:18:22;4.22;;;0.60;;
76035;SDS011;64732;56.314;44.068;2023-09-19T07:20:43;4.72;;;0.73;;
76035;SDS011;64732;56.314;44.068;2023-09-19T07:23:05;2.42;;;0.90;;
76035;SDS011;64732;56.314;44.068;2023-09-19T07:25:26;1.30;;;0.50;;
76035;SDS011;64732;56.314;44.068;2023-09-19T07:27:47;3.30;;;0.30;;
76035;SDS011;64732;56.314;44.068;2023-09-19T07:30:09;0.63;;;0.28;;
76035;SDS011;64732;56.314;44.068;2023-09-19T07:32:31;1.13;;;0.40;;
76035;SDS011;64732;56.314;44.068;2023-09-19T07:34:54;2.70;;;0.38;;
76035;SDS011;64732;56.314;44.068;2023-09-19T07:37:15;1.40;;;0.40;;
76035;SDS011;64732;56.314;44.068;2023-09-19T07:39:36;1.70;;;0.30;;
76035;SDS011;64732;56.314;44.068;2023-09-19T07:41:57;0.95;;;0.30;;
76035;SDS011;64732;56.314;44.068;2023-09-19T07:44:18;1.88;;;0.40;;
76035;SDS011;64732;56.314;44.068;2023-09-19T07:46:40;1.30;;;0.30;;
76035;SDS011;64732;56.314;44.068;2023-09-19T07:49:01;2.05;;;0.20;;
76035;SDS011;64732;56.314;44.068;2023-09-19T07:51:24;1.00;;;0.20;;
76035;SDS011;64732;56.314;44.068;2023-09-19T07:53:45;1.65;;;0.35;;
76035;SDS011;64732;56.314;44.068;2023-09-19T07:56:07;1.77;;;0.38;;
76035;SDS011;64732;56.314;44.068;2023-09-19T07:58:28;2.65;;;0.38;;
76035;SDS011;64732;56.314;44.068;2023-09-19T08:00:49;1.50;;;0.43;;
76035;SDS011;64732;56.314;44.068;2023-09-19T08:03:11;2.42;;;0.43;;
76035;SDS011;64732;56.314;44.068;2023-09-19T08:05:33;1.40;;;0.40;;
76035;SDS011;64732;56.314;44.068;2023-09-19T08:07:57;2.40;;;0.50;;
76035;SDS011;64732;56.314;44.068;2023-09-19T08:10:19;2.55;;;0.68;;
76035;SDS011;64732;56.314;44.068;2023-09-19T08:12:40;3.65;;;0.50;;
76035;SDS011;64732;56.314;44.068;2023-09-19T08:15:02;2.30;;;0.65;;
76035;SDS011;64732;56.314;44.068;2023-09-19T08:17:24;1.38;;;0.60;;
76035;SDS011;64732;56.314;44.068;2023-09-19T08:19:45;2.85;;;0.65;;
76035;SDS011;64732;56.314;44.068;2023-09-19T08:22:08;1.48;;;0.60;;
76035;SDS011;64732;56.314;44.068;2023-09-19T08:24:33;1.48;;;0.70;;
76035;SDS011;64732;56.314;44.068;2023-09-19T08:26:54;2.55;;;0.68;;
76035;SDS011;64732;56.314;44.068;2023-09-19T08:29:21;3.22;;;0.60;;
76035;SDS011;64732;56.314;44.068;2023-09-19T08:31:45;2.97;;;1.00;;
76035;SDS011;64732;56.314;44.068;2023-09-19T08:34:06;4.22;;;0.55;;
76035;SDS011;64732;56.314;44.068;2023-09-19T08:36:29;5.28;;;0.70;;
76035;SDS011;64732;56.314;44.068;2023-09-19T08:38:52;4.18;;;0.90;;
76035;SDS011;64732;56.314;44.068;2023-09-19T08:41:17;6.68;;;0.82;;
76035;SDS011;64732;56.314;44.068;2023-09-19T08:43:41;1.80;;;0.60;;
76035;SDS011;64732;56.314;44.068;2023-09-19T08:46:03;2.33;;;0.80;;
76035;SDS011;64732;56.314;44.068;2023-09-19T08:48:30;1.88;;;0.57;;
76035;SDS011;64732;56.314;44.068;2023-09-19T08:50:54;2.10;;;0.68;;
76035;SDS011;64732;56.314;44.068;2023-09-19T08:53:22;2.92;;;0.77;;
76035;SDS011;64732;56.314;44.068;2023-09-19T08:55:47;1.20;;;0.40;;
76035;SDS011;64732;56.314;44.068;2023-09-19T08:58:13;1.35;;;0.50;;
76035;SDS011;64732;56.314;44.068;2023-09-19T09:00:36;2.33;;;0.88;;
76035;SDS011;64732;56.314;44.068;2023-09-19T09:02:58;4.80;;;0.60;;
76035;SDS011;64732;56.314;44.068;2023-09-19T09:05:22;3.55;;;1.25;;
76035;SDS011;64732;56.314;44.068;2023-09-19T09:07:46;1.17;;;0.52;;
76035;SDS011;64732;56.314;44.068;2023-09-19T09:10:08;2.08;;;0.90;;
76035;SDS011;64732;56.314;44.068;2023-09-19T09:12:31;4.18;;;1.85;;
76035;SDS011;64732;56.314;44.068;2023-09-19T09:14:56;2.53;;;1.00;;
76035;SDS011;64732;56.314;44.068;2023-09-19T09:17:18;3.92;;;0.73;;
76035;SDS011;64732;56.314;44.068;2023-09-19T09:19:40;2.63;;;0.80;;
76035;SDS011;64732;56.314;44.068;2023-09-19T09:22:10;4.90;;;0.70;;
76035;SDS011;64732;56.314;44.068;2023-09-19T09:24:32;4.85;;;0.85;;
76035;SDS011;64732;56.314;44.068;2023-09-19T09:26:54;2.03;;;0.93;;
76035;SDS011;64732;56.314;44.068;2023-09-19T09:29:17;2.35;;;0.70;;
76035;SDS011;64732;56.314;44.068;2023-09-19T09:34:45;3.28;;;0.65;;
76035;SDS011;64732;56.314;44.068;2023-09-19T09:37:07;4.35;;;1.25;;
76035;SDS011;64732;56.314;44.068;2023-09-19T09:39:35;3.40;;;0.90;;
76035;SDS011;64732;56.314;44.068;2023-09-19T09:42:00;6.03;;;0.85;;
76035;SDS011;64732;56.314;44.068;2023-09-19T09:44:24;2.85;;;0.70;;
76035;SDS011;64732;56.314;44.068;2023-09-19T09:46:49;2.00;;;0.52;;
76035;SDS011;64732;56.314;44.068;2023-09-19T09:49:13;1.58;;;0.90;;
76035;SDS011;64732;56.314;44.068;2023-09-19T09:51:39;4.25;;;0.80;;
76035;SDS011;64732;56.314;44.068;2023-09-19T09:54:09;1.92;;;0.75;;
76035;SDS011;64732;56.314;44.068;2023-09-19T09:56:34;3.60;;;0.75;;
76035;SDS011;64732;56.314;44.068;2023-09-19T09:58:56;3.60;;;0.95;;
76035;SDS011;64732;56.314;44.068;2023-09-19T10:01:18;3.13;;;1.02;;
76035;SDS011;64732;56.314;44.068;2023-09-19T10:03:42;2.80;;;1.08;;
76035;SDS011;64732;56.314;44.068;2023-09-19T10:06:10;3.28;;;0.85;;
76035;SDS011;64732;56.314;44.068;2023-09-19T10:08:36;3.95;;;1.15;;
76035;SDS011;64732;56.314;44.068;2023-09-19T10:11:36;2.15;;;1.10;;
76035;SDS011;64732;56.314;44.068;2023-09-19T10:14:00;2.55;;;0.95;;
76035;SDS011;64732;56.314;44.068;2023-09-19T10:16:33;3.15;;;1.00;;
76035;SDS011;64732;56.314;44.068;2023-09-19T10:18:59;4.45;;;1.10;;
76035;SDS011;64732;56.314;44.068;2023-09-19T10:21:36;4.22;;;1.20;;
76035;SDS011;64732;56.314;44.068;2023-09-19T10:24:01;2.28;;;1.00;;
76035;SDS011;64732;56.314;44.068;2023-09-19T10:26:29;5.90;;;1.30;;
76035;SDS011;64732;56.314;44.068;2023-09-19T10:28:52;2.90;;;1.20;;
76035;SDS011;64732;56.314;44.068;2023-09-19T10:31:17;3.22;;;0.90;;
76035;SDS011;64732;56.314;44.068;2023-09-19T10:33:45;2.75;;;1.17;;
76035;SDS011;64732;56.314;44.068;2023-09-19T10:36:17;2.85;;;1.13;;
76035;SDS011;64732;56.314;44.068;2023-09-19T10:38:42;4.95;;;1.50;;
76035;SDS011;64732;56.314;44.068;2023-09-19T10:41:05;6.25;;;1.30;;
76035;SDS011;64732;56.314;44.068;2023-09-19T10:43:41;3.67;;;1.00;;
76035;SDS011;64732;56.314;44.068;2023-09-19T10:46:12;4.10;;;1.40;;
76035;SDS011;64732;56.314;44.068;2023-09-19T10:48:37;5.43;;;1.50;;
76035;SDS011;64732;56.314;44.068;2023-09-19T10:51:02;3.38;;;1.25;;
76035;SDS011;64732;56.314;44.068;2023-09-19T10:53:31;10.63;;;1.50;;
76035;SDS011;64732;56.314;44.068;2023-09-19T10:56:06;5.80;;;1.20;;
76035;SDS011;64732;56.314;44.068;2023-09-19T10:58:30;5.20;;;1.70;;
76035;SDS011;64732;56.314;44.068;2023-09-19T11:01:00;4.22;;;1.20;;
76035;SDS011;64732;56.314;44.068;2023-09-19T11:03:34;2.95;;;1.40;;
76035;SDS011;64732;56.314;44.068;2023-09-19T11:06:10;4.95;;;1.35;;
76035;SDS011;64732;56.314;44.068;2023-09-19T11:22:26;5.28;;;1.40;;
76035;SDS011;64732;56.314;44.068;2023-09-19T11:30:53;6.80;;;1.70;;
76035;SDS011;64732;56.314;44.068;2023-09-19T11:33:19;7.00;;;1.67;;
76035;SDS011;64732;56.314;44.068;2023-09-19T11:46:52;6.50;;;1.77;;
76035;SDS011;64732;56.314;44.068;2023-09-19T11:49:26;8.35;;;2.17;;
76035;SDS011;64732;56.314;44.068;2023-09-19T11:51:53;5.95;;;2.10;;
76035;SDS011;64732;56.314;44.068;2023-09-19T11:54:28;8.02;;;2.20;;
76035;SDS011;64732;56.314;44.068;2023-09-19T11:56:54;4.70;;;1.92;;
76035;SDS011;64732;56.314;44.068;2023-09-19T11:59:22;11.52;;;1.90;;
76035;SDS011;64732;56.314;44.068;2023-09-19T12:01:51;6.53;;;1.90;;
76035;SDS011;64732;56.314;44.068;2023-09-19T12:04:16;5.38;;;1.85;;
76035;SDS011;64732;56.314;44.068;2023-09-19T12:06:40;5.25;;;1.75;;
76035;SDS011;64732;56.314;44.068;2023-09-19T12:09:03;8.10;;;1.70;;
76035;SDS011;64732;56.314;44.068;2023-09-19T12:11:27;6.53;;;1.60;;
76035;SDS011;64732;56.314;44.068;2023-09-19T12:13:56;5.30;;;1.30;;
76035;SDS011;64732;56.314;44.068;2023-09-19T12:16:25;6.70;;;1.80;;
76035;SDS011;64732;56.314;44.068;2023-09-19T12:18:48;10.02;;;1.88;;
76035;SDS011;64732;56.314;44.068;2023-09-19T12:23:56;4.93;;;1.73;;
76035;SDS011;64732;56.314;44.068;2023-09-19T12:26:46;9.55;;;1.77;;
76035;SDS011;64732;56.314;44.068;2023-09-19T12:29:19;6.03;;;1.63;;
76035;SDS011;64732;56.314;44.068;2023-09-19T12:31:51;3.08;;;1.25;;
76035;SDS011;64732;56.314;44.068;2023-09-19T12:34:19;4.38;;;1.30;;
76035;SDS011;64732;56.314;44.068;2023-09-19T12:37:01;6.78;;;1.25;;
76035;SDS011;64732;56.314;44.068;2023-09-19T12:39:30;7.03;;;1.02;;
76035;SDS011;64732;56.314;44.068;2023-09-19T12:41:59;4.40;;;1.42;;
76035;SDS011;64732;56.314;44.068;2023-09-19T12:44:23;9.15;;;1.38;;
76035;SDS011;64732;56.314;44.068;2023-09-19T12:46:54;6.25;;;1.10;;
76035;SDS011;64732;56.314;44.068;2023-09-19T12:49:16;3.63;;;1.08;;
76035;SDS011;64732;56.314;44.068;2023-09-19T12:51:42;4.38;;;1.00;;
76035;SDS011;64732;56.314;44.068;2023-09-19T12:56:55;2.03;;;0.77;;
76035;SDS011;64732;56.314;44.068;2023-09-19T12:59:59;1.98;;;0.85;;
76035;SDS011;64732;56.314;44.068;2023-09-19T13:02:33;4.57;;;0.80;;
76035;SDS011;64732;56.314;44.068;2023-09-19T13:05:01;2.67;;;0.80;;
76035;SDS011;64732;56.314;44.068;2023-09-19T13:07:43;3.30;;;0.90;;
76035;SDS011;64732;56.314;44.068;2023-09-19T13:10:15;1.77;;;0.60;;
76035;SDS011;64732;56.314;44.068;2023-09-19T13:12:41;3.97;;;0.80;;
76035;SDS011;64732;56.314;44.068;2023-09-19T13:15:08;2.00;;;0.50;;
76035;SDS011;64732;56.314;44.068;2023-09-19T13:17:47;2.92;;;0.47;;
76035;SDS011;64732;56.314;44.068;2023-09-19T13:20:19;4.15;;;0.88;;
76035;SDS011;64732;56.314;44.068;2023-09-19T13:22:43;2.78;;;1.00;;
76035;SDS011;64732;56.314;44.068;2023-09-19T13:25:07;2.38;;;0.75;;
76035;SDS011;64732;56.314;44.068;2023-09-19T13:27:31;4.65;;;0.93;;
76035;SDS011;64732;56.314;44.068;2023-09-19T13:29:53;2.33;;;0.80;;
76035;SDS011;64732;56.314;44.068;2023-09-19T13:32:15;6.50;;;0.88;;
76035;SDS011;64732;56.314;44.068;2023-09-19T13:34:40;2.90;;;0.70;;
76035;SDS011;64732;56.314;44.068;2023-09-19T13:37:04;4.30;;;0.80;;
76035;SDS011;64732;56.314;44.068;2023-09-19T13:39:27;4.55;;;0.90;;
76035;SDS011;64732;56.314;44.068;2023-09-19T13:41:52;1.75;;;0.68;;
76035;SDS011;64732;56.314;44.068;2023-09-19T13:44:19;2.75;;;0.60;;
76035;SDS011;64732;56.314;44.068;2023-09-19T13:46:43;6.65;;;0.82;;
76035;SDS011;64732;56.314;44.068;2023-09-19T13:49:07;2.72;;;0.70;;
76035;SDS011;64732;56.314;44.068;2023-09-19T13:51:31;2.83;;;0.60;;
76035;SDS011;64732;56.314;44.068;2023-09-19T13:53:53;4.22;;;1.00;;
76035;SDS011;64732;56.314;44.068;2023-09-19T13:56:14;2.67;;;0.70;;
76035;SDS011;64732;56.314;44.068;2023-09-19T13:58:37;2.42;;;0.60;;
76035;SDS011;64732;56.314;44.068;2023-09-19T14:00:59;5.38;;;0.93;;
76035;SDS011;64732;56.314;44.068;2023-09-19T14:03:24;2.25;;;0.95;;
76035;SDS011;64732;56.314;44.068;2023-09-19T14:05:48;5.20;;;1.00;;
76035;SDS011;64732;56.314;44.068;2023-09-19T14:08:13;3.13;;;1.08;;
76035;SDS011;64732;56.314;44.068;2023-09-19T14:10:37;3.30;;;0.82;;
76035;SDS011;64732;56.314;44.068;2023-09-19T14:12:58;5.72;;;1.33;;
76035;SDS011;64732;56.314;44.068;2023-09-19T14:15:22;4.28;;;1.30;;
76035;SDS011;64732;56.314;44.068;2023-09-19T14:17:44;7.28;;;1.30;;
76035;SDS011;64732;56.314;44.068;2023-09-19T14:20:14;6.93;;;1.33;;
76035;SDS011;64732;56.314;44.068;2023-09-19T14:22:36;5.97;;;0.70;;
76035;SDS011;64732;56.314;44.068;2023-09-19T14:25:03;3.40;;;0.90;;
76035;SDS011;64732;56.314;44.068;2023-09-19T14:27:26;6.47;;;0.93;;
76035;SDS011;64732;56.314;44.068;2023-09-19T14:29:50;5.15;;;1.15;;
76035;SDS011;64732;56.314;44.068;2023-09-19T14:32:15;7.40;;;1.20;;
76035;SDS011;64732;56.314;44.068;2023-09-19T14:34:36;4.38;;;1.20;;
76035;SDS011;64732;56.314;44.068;2023-09-19T14:36:58;4.93;;;1.08;;
76035;SDS011;64732;56.314;44.068;2023-09-19T14:39:20;4.15;;;1.70;;
76035;SDS011;64732;56.314;44.068;2023-09-19T14:41:44;4.85;;;1.50;;
76035;SDS011;64732;56.314;44.068;2023-09-19T14:44:06;3.10;;;1.20;;
76035;SDS011;64732;56.314;44.068;2023-09-19T14:46:30;4.82;;;1.27;;
76035;SDS011;64732;56.314;44.068;2023-09-19T14:48:58;6.70;;;1.00;;
76035;SDS011;64732;56.314;44.068;2023-09-19T14:51:20;3.22;;;1.20;;
76035;SDS011;64732;56.314;44.068;2023-09-19T14:53:41;6.43;;;1.05;;